createdAt,value
2018-08-28T00:02:11.984Z,13.15
2018-08-28T00:05:16.834Z,13.09
2018-08-28T00:08:21.714Z,13.26
2018-08-28T00:11:26.555Z,13.45
2018-08-28T00:14:31.393Z,13.59
2018-08-28T00:17:36.495Z,13.48
2018-08-28T00:20:41.253Z,13.37
2018-08-28T00:23:46.152Z,13.19
2018-08-28T00:26:50.939Z,13.19
2018-08-28T00:29:55.849Z,13.05
2018-08-28T00:33:00.678Z,12.88
2018-08-28T00:36:05.446Z,12.91
2018-08-28T00:39:10.400Z,12.88
2018-08-28T00:42:15.235Z,12.77
2018-08-28T00:45:20.063Z,12.62
2018-08-28T00:48:24.802Z,12.49
2018-08-28T00:51:29.627Z,12.51
2018-08-28T00:54:34.388Z,12.67
2018-08-28T00:57:39.180Z,12.58
2018-08-28T01:00:44.011Z,12.67
2018-08-28T01:03:48.889Z,12.75
2018-08-28T01:06:53.819Z,13.09
2018-08-28T01:09:58.542Z,13.13
2018-08-28T01:13:03.366Z,13.30
2018-08-28T01:16:08.307Z,13.31
2018-08-28T01:19:13.102Z,13.42
2018-08-28T01:22:18.008Z,13.51
2018-08-28T01:25:23.058Z,13.50
2018-08-28T01:28:27.931Z,13.52
2018-08-28T01:31:32.718Z,13.65
2018-08-28T01:34:37.515Z,13.67
2018-08-28T01:37:42.381Z,13.62
2018-08-28T01:40:47.134Z,13.56
2018-08-28T01:43:52.025Z,13.57
2018-08-28T01:46:56.907Z,13.51
2018-08-28T01:50:01.799Z,13.52
2018-08-28T01:53:07.052Z,13.53
2018-08-28T01:56:11.860Z,13.55
2018-08-28T01:59:16.661Z,13.54
2018-08-28T02:02:21.485Z,13.59
2018-08-28T02:05:26.336Z,13.60
2018-08-28T02:08:31.069Z,13.53
2018-08-28T02:11:36.201Z,13.47
2018-08-28T02:14:40.922Z,13.46
2018-08-28T02:17:45.846Z,13.40
2018-08-28T02:20:50.595Z,13.28
2018-08-28T02:23:55.472Z,13.21
2018-08-28T02:27:00.356Z,13.07
2018-08-28T02:30:05.151Z,13.04
2018-08-28T02:33:10.083Z,12.98
2018-08-28T02:36:14.891Z,12.86
2018-08-28T02:39:19.600Z,12.80
2018-08-28T02:42:24.566Z,12.74
2018-08-28T02:45:29.383Z,12.70
2018-08-28T02:48:34.259Z,12.61
2018-08-28T02:51:39.217Z,12.60
2018-08-28T02:54:44.109Z,12.53
2018-08-28T02:57:49.148Z,12.36
2018-08-28T03:00:53.979Z,12.25
2018-08-28T03:03:58.781Z,12.22
2018-08-28T03:07:03.583Z,12.18
2018-08-28T03:10:17.219Z,12.14
2018-08-28T03:13:22.192Z,12.11
2018-08-28T03:16:27.003Z,11.99
2018-08-28T03:19:31.776Z,11.95
2018-08-28T03:22:36.467Z,11.89
2018-08-28T03:25:41.260Z,11.77
2018-08-28T03:28:46.096Z,11.66
2018-08-28T03:31:50.973Z,11.60
2018-08-28T03:34:55.809Z,11.50
2018-08-28T03:38:00.632Z,11.46
2018-08-28T03:41:05.668Z,11.51
2018-08-28T03:44:10.536Z,11.47
2018-08-28T03:47:15.365Z,11.48
2018-08-28T03:50:20.497Z,11.41
2018-08-28T03:53:25.281Z,11.44
2018-08-28T03:56:30.166Z,11.39
2018-08-28T03:59:34.936Z,11.28
2018-08-28T04:02:39.788Z,11.09
2018-08-28T04:05:44.606Z,11.07
2018-08-28T04:08:49.435Z,10.91
2018-08-28T04:11:54.163Z,10.93
2018-08-28T04:14:58.967Z,10.87
2018-08-28T04:18:03.807Z,10.88
2018-08-28T04:21:08.654Z,10.86
2018-08-28T04:24:13.412Z,10.95
2018-08-28T04:27:18.250Z,10.84
2018-08-28T04:30:23.148Z,10.83
2018-08-28T04:33:28.029Z,10.79
2018-08-28T04:36:33.040Z,10.88
2018-08-28T04:39:37.876Z,10.83
2018-08-28T04:42:42.723Z,10.83
2018-08-28T04:45:47.561Z,10.85
2018-08-28T04:48:52.484Z,10.86
2018-08-28T04:51:57.420Z,10.84
2018-08-28T04:55:02.351Z,10.92
2018-08-28T04:58:07.188Z,10.95
2018-08-28T05:01:11.950Z,11.05
2018-08-28T05:04:16.731Z,11.18
2018-08-28T05:07:21.539Z,11.53
2018-08-28T05:10:26.359Z,11.41
2018-08-28T05:13:31.259Z,11.44
2018-08-28T05:16:36.097Z,11.52
2018-08-28T05:19:40.927Z,11.77
2018-08-28T05:22:46.041Z,11.84
2018-08-28T05:25:50.858Z,12.21
2018-08-28T05:28:55.740Z,12.48
2018-08-28T05:32:00.603Z,12.81
2018-08-28T05:35:06.100Z,13.30
2018-08-28T05:38:11.025Z,13.51
2018-08-28T05:41:15.771Z,13.82
2018-08-28T05:44:20.601Z,13.77
2018-08-28T05:47:25.422Z,13.85
2018-08-28T05:50:30.279Z,14.05
2018-08-28T05:53:35.016Z,14.17
2018-08-28T05:56:39.786Z,14.33
2018-08-28T05:59:44.540Z,14.29
2018-08-28T06:02:49.449Z,14.39
2018-08-28T06:05:54.201Z,14.44
2018-08-28T06:08:59.200Z,14.38
2018-08-28T06:12:04.134Z,14.95
2018-08-28T06:15:09.123Z,15.42
2018-08-28T06:18:13.987Z,15.40
2018-08-28T06:21:18.817Z,15.38
2018-08-28T06:24:23.535Z,15.27
2018-08-28T06:27:28.347Z,15.25
2018-08-28T06:30:33.134Z,15.48
2018-08-28T06:33:38.029Z,15.33
2018-08-28T06:36:42.822Z,15.40
2018-08-28T06:39:47.667Z,15.59
2018-08-28T06:42:52.463Z,15.70
2018-08-28T06:45:57.210Z,15.70
2018-08-28T06:49:02.009Z,16.34
2018-08-28T06:52:07.067Z,16.66
2018-08-28T06:55:12.786Z,16.87
2018-08-28T06:58:17.633Z,16.69
2018-08-28T07:01:22.476Z,17.00
2018-08-28T07:04:27.364Z,17.22
2018-08-28T07:07:32.167Z,17.15
2018-08-28T07:10:36.978Z,17.41
2018-08-28T07:13:41.680Z,17.13
2018-08-28T07:16:47.396Z,17.45
2018-08-28T07:19:52.178Z,17.17
2018-08-28T07:22:57.125Z,17.39
2018-08-28T07:26:02.013Z,17.33
2018-08-28T07:29:06.808Z,17.75
2018-08-28T07:32:11.716Z,17.93
2018-08-28T07:35:16.482Z,18.42
2018-08-28T07:38:21.354Z,18.32
2018-08-28T07:41:26.124Z,18.35
2018-08-28T07:44:31.097Z,18.53
2018-08-28T07:47:35.911Z,18.62
2018-08-28T07:50:40.717Z,18.85
2018-08-28T07:53:45.582Z,18.90
2018-08-28T07:56:50.331Z,19.11
2018-08-28T07:59:55.094Z,18.91
2018-08-28T08:02:59.886Z,19.18
2018-08-28T08:06:04.709Z,19.48
2018-08-28T08:09:11.037Z,19.89
2018-08-28T08:12:15.964Z,19.50
2018-08-28T08:15:20.744Z,19.59
2018-08-28T08:18:25.590Z,19.84
2018-08-28T08:21:30.480Z,20.27
2018-08-28T08:24:35.279Z,20.41
2018-08-28T08:27:40.198Z,20.81
2018-08-28T08:30:45.028Z,20.93
2018-08-28T08:33:49.849Z,21.11
2018-08-28T08:36:54.699Z,21.23
2018-08-28T08:39:59.539Z,21.39
2018-08-28T08:43:04.389Z,21.67
2018-08-28T08:46:09.200Z,21.02
2018-08-28T08:49:14.028Z,21.42
2018-08-28T08:52:18.862Z,21.43
2018-08-28T08:55:23.623Z,21.44
2018-08-28T08:58:28.514Z,21.66
2018-08-28T09:01:33.462Z,21.26
2018-08-28T09:04:38.391Z,21.76
2018-08-28T09:07:43.131Z,21.46
2018-08-28T09:10:47.925Z,21.75
2018-08-28T09:13:52.705Z,22.11
2018-08-28T09:16:57.478Z,21.87
2018-08-28T09:20:02.291Z,22.32
2018-08-28T09:23:07.216Z,22.35
2018-08-28T09:26:12.039Z,22.05
2018-08-28T09:29:16.803Z,22.33
2018-08-28T09:32:21.769Z,22.88
2018-08-28T09:35:26.486Z,22.26
2018-08-28T09:38:31.364Z,22.56
2018-08-28T09:41:36.281Z,22.54
2018-08-28T09:44:41.196Z,23.02
2018-08-28T09:47:46.034Z,22.69
2018-08-28T09:50:50.789Z,23.19
2018-08-28T09:53:55.710Z,23.20
2018-08-28T09:57:00.477Z,23.53
2018-08-28T10:00:05.384Z,23.24
2018-08-28T10:03:10.410Z,22.90
2018-08-28T10:06:15.211Z,22.84
2018-08-28T10:09:20.136Z,22.27
2018-08-28T10:12:24.929Z,22.35
2018-08-28T10:15:29.759Z,22.87
2018-08-28T10:18:34.661Z,22.71
2018-08-28T10:21:39.828Z,23.19
2018-08-28T10:24:44.627Z,23.37
2018-08-28T10:27:49.520Z,22.75
2018-08-28T10:30:54.334Z,23.21
2018-08-28T10:33:59.128Z,23.29
2018-08-28T10:37:03.964Z,23.27
2018-08-28T10:40:08.788Z,22.81
2018-08-28T10:43:13.678Z,22.93
2018-08-28T10:46:18.653Z,23.52
2018-08-28T10:49:24.259Z,24.23
2018-08-28T10:52:29.177Z,24.50
2018-08-28T10:55:33.982Z,24.71
2018-08-28T10:58:38.959Z,23.31
2018-08-28T11:01:43.825Z,23.75
2018-08-28T11:04:49.091Z,23.62
2018-08-28T11:07:54.877Z,23.26
2018-08-28T11:10:59.761Z,23.83
2018-08-28T11:14:04.599Z,23.69
2018-08-28T11:17:09.978Z,23.95
2018-08-28T11:20:16.589Z,24.06
2018-08-28T11:23:21.452Z,24.35
2018-08-28T11:26:26.213Z,24.19
2018-08-28T11:29:31.007Z,24.10
2018-08-28T11:32:35.830Z,24.47
2018-08-28T11:35:40.644Z,24.42
2018-08-28T11:38:45.436Z,24.56
2018-08-28T11:41:50.294Z,23.86
2018-08-28T11:44:55.571Z,23.79
2018-08-28T11:48:00.381Z,24.14
2018-08-28T11:51:05.379Z,24.48
2018-08-28T11:54:10.137Z,24.93
2018-08-28T11:57:15.043Z,24.50
2018-08-28T12:00:19.855Z,24.41
2018-08-28T12:03:24.804Z,24.72
2018-08-28T12:06:29.581Z,25.27
2018-08-28T12:09:34.451Z,24.92
2018-08-28T12:12:39.534Z,24.50
2018-08-28T12:15:44.339Z,25.20
2018-08-28T12:18:49.188Z,25.06
2018-08-28T12:21:53.939Z,24.40
2018-08-28T12:24:58.807Z,24.21
2018-08-28T12:28:03.857Z,24.88
2018-08-28T12:31:08.648Z,24.71
2018-08-28T12:34:13.474Z,24.99
2018-08-28T12:37:18.280Z,25.65
2018-08-28T12:40:23.134Z,25.58
2018-08-28T12:43:27.913Z,25.42
2018-08-28T12:46:32.738Z,25.82
2018-08-28T12:49:37.612Z,25.81
2018-08-28T12:52:42.754Z,26.15
2018-08-28T12:55:47.544Z,25.42
2018-08-28T12:58:53.359Z,26.12
2018-08-28T13:01:58.120Z,25.83
2018-08-28T13:05:02.917Z,26.05
2018-08-28T13:08:08.192Z,25.71
2018-08-28T13:11:12.917Z,25.55
2018-08-28T13:14:17.840Z,25.18
2018-08-28T13:17:22.785Z,25.73
2018-08-28T13:20:27.584Z,26.24
2018-08-28T13:23:32.409Z,25.66
2018-08-28T13:26:37.226Z,26.11
2018-08-28T13:29:42.005Z,25.58
2018-08-28T13:32:46.869Z,25.76
2018-08-28T13:35:51.651Z,25.37
2018-08-28T13:38:56.508Z,25.62
2018-08-28T13:42:01.317Z,25.93
2018-08-28T13:45:06.367Z,26.21
2018-08-28T13:48:11.266Z,26.23
2018-08-28T13:51:16.274Z,26.24
2018-08-28T13:54:21.219Z,26.41
2018-08-28T13:57:26.129Z,26.64
2018-08-28T14:00:30.934Z,26.29
2018-08-28T14:03:35.980Z,26.09
2018-08-28T14:06:40.855Z,25.99
2018-08-28T14:09:45.711Z,26.23
2018-08-28T14:12:50.536Z,26.58
2018-08-28T14:15:55.484Z,26.60
2018-08-28T14:19:00.413Z,26.72
2018-08-28T14:22:05.327Z,26.78
2018-08-28T14:25:10.262Z,26.71
2018-08-28T14:28:15.069Z,26.99
2018-08-28T14:31:19.818Z,27.12
2018-08-28T14:34:24.688Z,27.38
2018-08-28T14:37:29.540Z,26.81
2018-08-28T14:40:34.350Z,27.21
2018-08-28T14:43:39.228Z,27.25
2018-08-28T14:46:44.029Z,26.94
2018-08-28T14:49:49.156Z,27.24
2018-08-28T14:52:54.074Z,27.11
2018-08-28T14:55:58.895Z,26.64
2018-08-28T14:59:03.905Z,26.73
2018-08-28T15:02:08.857Z,26.62
2018-08-28T15:05:13.757Z,26.94
2018-08-28T15:08:18.573Z,27.10
2018-08-28T15:11:23.456Z,27.32
2018-08-28T15:14:28.375Z,27.29
2018-08-28T15:17:33.324Z,27.07
2018-08-28T15:20:38.116Z,26.82
2018-08-28T15:23:43.174Z,27.20
2018-08-28T15:26:47.967Z,27.03
2018-08-28T15:29:52.961Z,26.60
2018-08-28T15:32:57.866Z,26.82
2018-08-28T15:36:02.932Z,26.26
2018-08-28T15:39:08.424Z,26.34
2018-08-28T15:42:13.321Z,26.37
2018-08-28T15:45:18.228Z,26.60
2018-08-28T15:48:23.206Z,26.25
2018-08-28T15:51:28.294Z,26.49
2018-08-28T15:54:32.929Z,26.01
2018-08-28T15:57:37.985Z,25.85
2018-08-28T16:00:42.832Z,25.93
2018-08-28T16:03:47.702Z,25.75
2018-08-28T16:06:53.017Z,25.78
2018-08-28T16:09:57.821Z,26.11
2018-08-28T16:13:02.703Z,25.79
2018-08-28T16:16:07.762Z,25.73
2018-08-28T16:19:12.691Z,25.46
2018-08-28T16:22:21.840Z,25.11
2018-08-28T16:25:26.761Z,25.07
2018-08-28T16:28:31.798Z,25.08
2018-08-28T16:31:36.902Z,24.76
2018-08-28T16:34:41.728Z,24.66
2018-08-28T16:37:48.205Z,24.42
2018-08-28T16:40:52.993Z,24.27
2018-08-28T16:43:57.786Z,23.95
2018-08-28T16:47:02.621Z,23.61
2018-08-28T16:50:07.573Z,23.34
2018-08-28T16:53:12.363Z,23.33
2018-08-28T16:56:17.273Z,23.12
2018-08-28T16:59:22.087Z,22.89
2018-08-28T17:02:26.986Z,22.81
2018-08-28T17:05:31.825Z,22.75
2018-08-28T17:08:36.668Z,22.77
2018-08-28T17:11:41.416Z,22.67
2018-08-28T17:14:46.381Z,22.41
2018-08-28T17:17:51.156Z,22.34
2018-08-28T17:20:56.000Z,22.31
2018-08-28T17:24:00.772Z,22.09
2018-08-28T17:27:05.843Z,22.24
2018-08-28T17:30:37.416Z,22.07
2018-08-28T17:33:45.081Z,21.79
2018-08-28T17:36:50.052Z,21.48
2018-08-28T17:39:55.060Z,21.27
2018-08-28T17:42:59.908Z,20.99
2018-08-28T17:46:05.108Z,20.87
2018-08-28T17:49:10.105Z,20.64
2018-08-28T17:52:14.885Z,20.47
2018-08-28T17:55:19.756Z,20.50
2018-08-28T17:58:24.554Z,20.31
2018-08-28T18:01:29.432Z,20.01
2018-08-28T18:04:34.263Z,19.84
2018-08-28T18:07:39.165Z,19.58
2018-08-28T18:10:44.238Z,19.38
2018-08-28T18:13:49.018Z,19.28
2018-08-28T18:16:53.854Z,19.15
2018-08-28T18:19:58.778Z,18.98
2018-08-28T18:23:03.684Z,18.73
2018-08-28T18:26:08.840Z,18.51
2018-08-28T18:29:13.743Z,18.34
2018-08-28T18:32:18.616Z,18.10
2018-08-28T18:35:23.486Z,17.98
2018-08-28T18:38:28.364Z,17.96
2018-08-28T18:41:33.304Z,17.83
2018-08-28T18:44:38.159Z,17.64
2018-08-28T18:47:42.998Z,17.67
2018-08-28T18:50:47.809Z,17.44
2018-08-28T18:53:52.804Z,17.38
2018-08-28T18:56:57.588Z,17.16
2018-08-28T19:00:02.822Z,17.09
2018-08-28T19:03:07.666Z,16.93
2018-08-28T19:06:12.606Z,16.91
2018-08-28T19:09:17.746Z,16.75
2018-08-28T19:12:22.737Z,16.65
2018-08-28T19:15:28.545Z,16.56
2018-08-28T19:18:33.909Z,16.52
2018-08-28T19:21:38.769Z,16.53
2018-08-28T19:24:43.672Z,16.26
2018-08-28T19:27:48.618Z,16.05
2018-08-28T19:30:53.425Z,16.01
2018-08-28T19:33:58.281Z,15.97
2018-08-28T19:37:03.314Z,15.85
2018-08-28T19:40:08.339Z,15.76
2018-08-28T19:43:13.502Z,15.66
2018-08-28T19:46:18.596Z,15.53
2018-08-28T19:49:23.509Z,15.50
2018-08-28T19:52:28.691Z,15.47
2018-08-28T19:55:33.749Z,15.32
2018-08-28T19:58:38.760Z,15.25
2018-08-28T20:01:44.717Z,15.21
2018-08-28T20:04:51.001Z,15.14
2018-08-28T20:07:55.918Z,14.98
2018-08-28T20:11:01.044Z,14.96
2018-08-28T20:14:06.054Z,14.84
2018-08-28T20:17:10.903Z,14.75
2018-08-28T20:20:15.846Z,14.71
2018-08-28T20:23:21.019Z,14.61
2018-08-28T20:26:25.889Z,14.55
2018-08-28T20:29:30.810Z,14.56
2018-08-28T20:32:35.715Z,14.49
2018-08-28T20:35:40.558Z,14.43
2018-08-28T20:38:45.680Z,14.24
2018-08-28T20:41:50.686Z,14.11
2018-08-28T20:44:56.181Z,14.01
2018-08-28T20:48:01.220Z,14.00
2018-08-28T20:51:07.253Z,13.90
2018-08-28T20:54:12.196Z,13.84
2018-08-28T20:57:17.188Z,13.84
2018-08-28T21:00:22.761Z,13.82
2018-08-28T21:03:28.781Z,13.70
2018-08-28T21:06:33.735Z,13.74
2018-08-28T21:09:38.675Z,13.55
2018-08-28T21:12:43.632Z,13.46
2018-08-28T21:15:48.538Z,13.45
2018-08-28T21:18:56.727Z,13.51
2018-08-28T21:22:02.637Z,13.49
2018-08-28T21:25:09.088Z,13.36
2018-08-28T21:28:13.940Z,13.22
2018-08-28T21:31:18.986Z,13.18
2018-08-28T21:34:23.803Z,13.21
2018-08-28T21:37:28.640Z,13.12
2018-08-28T21:40:33.508Z,13.12
2018-08-28T21:43:38.577Z,12.99
2018-08-28T21:46:43.412Z,12.91
2018-08-28T21:49:48.258Z,12.78
2018-08-28T21:52:53.084Z,12.76
2018-08-28T21:55:57.910Z,12.65
2018-08-28T21:59:02.800Z,12.72
2018-08-28T22:02:07.773Z,12.69
2018-08-28T22:05:12.615Z,12.66
2018-08-28T22:08:17.472Z,12.58
2018-08-28T22:11:22.421Z,12.47
2018-08-28T22:14:27.268Z,12.52
2018-08-28T22:17:32.138Z,12.63
2018-08-28T22:20:37.141Z,12.41
2018-08-28T22:23:42.022Z,12.32
2018-08-28T22:26:46.883Z,12.29
2018-08-28T22:29:51.854Z,12.26
2018-08-28T22:32:56.887Z,12.18
2018-08-28T22:36:01.748Z,12.12
2018-08-28T22:39:07.717Z,12.10
2018-08-28T22:42:12.596Z,12.19
2018-08-28T22:45:17.394Z,11.98
2018-08-28T22:48:22.228Z,12.12
2018-08-28T22:51:27.175Z,12.04
2018-08-28T22:54:32.038Z,11.92
2018-08-28T22:57:36.823Z,11.99
2018-08-28T23:00:41.609Z,11.95
2018-08-28T23:03:46.462Z,12.04
2018-08-28T23:06:51.305Z,12.17
2018-08-28T23:09:56.232Z,12.04
2018-08-28T23:13:01.317Z,11.87
2018-08-28T23:16:06.141Z,12.05
2018-08-28T23:19:11.003Z,11.91
2018-08-28T23:22:15.887Z,11.85
2018-08-28T23:25:20.704Z,11.87
2018-08-28T23:28:25.647Z,11.85
2018-08-28T23:31:30.495Z,11.87
2018-08-28T23:34:35.295Z,11.73
2018-08-28T23:37:40.192Z,11.64
2018-08-28T23:40:45.242Z,11.65
2018-08-28T23:43:50.027Z,11.53
2018-08-28T23:46:54.873Z,11.43
2018-08-28T23:49:59.677Z,11.34
2018-08-28T23:53:04.593Z,11.28
2018-08-28T23:56:09.593Z,11.25
2018-08-28T23:59:14.433Z,11.22
